createdAt,value
2022-09-20T00:04:47.639Z,80.91
2022-09-20T00:09:47.464Z,81.60
2022-09-20T00:14:47.448Z,81.91
2022-09-20T00:19:47.282Z,82.53
2022-09-20T00:24:49.073Z,82.53
2022-09-20T00:29:47.139Z,82.01
2022-09-20T00:34:47.170Z,82.53
2022-09-20T00:39:47.025Z,82.49
2022-09-20T00:44:47.030Z,81.57
2022-09-20T00:49:46.965Z,81.53
2022-09-20T00:54:49.987Z,81.98
2022-09-20T00:59:46.783Z,83.14
2022-09-20T01:04:46.846Z,81.43
2022-09-20T01:09:46.650Z,81.67
2022-09-20T01:14:46.590Z,82.01
2022-09-20T01:19:46.490Z,82.89
2022-09-20T01:24:46.452Z,81.77
2022-09-20T01:29:46.370Z,81.81
2022-09-20T01:34:46.355Z,82.01
2022-09-20T01:39:46.371Z,82.73
2022-09-20T01:44:46.765Z,83.18
2022-09-20T01:49:46.122Z,81.71
2022-09-20T01:54:49.080Z,83.14
2022-09-20T01:59:45.984Z,84.14
2022-09-20T02:04:46.102Z,84.20
2022-09-20T02:09:45.860Z,83.85
2022-09-20T02:14:45.810Z,82.93
2022-09-20T02:19:45.708Z,83.44
2022-09-20T02:24:53.195Z,82.24
2022-09-20T02:29:53.057Z,80.82
2022-09-20T02:34:53.302Z,80.33
2022-09-20T02:39:45.450Z,81.63
2022-09-20T02:44:45.516Z,83.10
2022-09-20T02:49:45.390Z,82.89
2022-09-20T02:54:56.167Z,82.49
2022-09-20T02:59:52.670Z,83.14
2022-09-20T03:04:53.065Z,83.26
2022-09-20T03:09:45.010Z,84.88
2022-09-20T03:14:45.050Z,85.38
2022-09-20T03:19:44.930Z,85.08
2022-09-20T03:24:44.996Z,85.38
2022-09-20T03:29:44.760Z,85.28
2022-09-20T03:34:52.565Z,84.69
2022-09-20T03:39:52.155Z,82.37
2022-09-20T03:44:44.601Z,85.35
2022-09-20T03:49:44.581Z,84.12
2022-09-20T03:54:47.590Z,84.08
2022-09-20T03:59:44.432Z,85.69
2022-09-20T04:04:44.870Z,84.53
2022-09-20T04:09:44.290Z,84.16
2022-09-20T04:14:44.354Z,84.77
2022-09-20T04:22:45.275Z,84.26
2022-09-20T04:27:45.011Z,84.67
2022-09-20T04:32:44.990Z,84.49
2022-09-20T04:37:44.915Z,83.87
2022-09-20T04:42:44.870Z,84.28
2022-09-20T04:47:44.789Z,83.43
2022-09-20T04:52:44.841Z,82.51
2022-09-20T04:57:45.135Z,83.63
2022-09-20T05:02:44.694Z,82.96
2022-09-20T05:07:44.545Z,83.47
2022-09-20T05:12:47.795Z,83.09
2022-09-20T05:17:44.460Z,83.98
2022-09-20T05:22:44.392Z,83.29
2022-09-20T05:27:44.407Z,83.43
2022-09-20T05:32:44.250Z,83.53
2022-09-20T05:37:44.221Z,83.39
2022-09-20T05:42:44.040Z,82.88
2022-09-20T05:47:43.984Z,81.62
2022-09-20T05:52:43.933Z,83.12
2022-09-20T05:57:43.871Z,82.21
2022-09-20T06:02:43.924Z,82.31
2022-09-20T06:07:43.727Z,82.86
2022-09-20T06:12:46.660Z,80.91
2022-09-20T06:17:43.570Z,82.35
2022-09-20T06:22:43.873Z,78.93
2022-09-20T06:27:43.451Z,79.79
2022-09-20T06:32:43.557Z,79.24
2022-09-20T06:37:43.306Z,79.82
2022-09-20T06:42:43.315Z,79.48
2022-09-20T06:47:43.226Z,80.05
2022-09-20T06:52:43.178Z,80.26
2022-09-20T07:00:21.805Z,79.24
2022-09-20T07:05:21.628Z,79.27
2022-09-20T07:10:21.610Z,79.00
2022-09-20T07:15:21.530Z,79.17
2022-09-20T07:20:21.731Z,78.69
2022-09-20T07:25:21.484Z,77.30
2022-09-20T07:30:21.401Z,77.06
2022-09-20T07:35:21.267Z,77.10
2022-09-20T07:40:21.578Z,76.72
2022-09-20T07:45:21.098Z,75.53
2022-09-20T07:50:24.041Z,73.53
2022-09-20T07:55:21.044Z,73.09
2022-09-20T08:00:21.230Z,72.04
2022-09-20T08:06:39.660Z,68.56
2022-09-20T08:11:47.125Z,68.97
2022-09-20T08:16:39.402Z,68.56
2022-09-20T08:21:39.190Z,68.13
2022-09-20T08:26:39.312Z,69.98
2022-09-20T08:31:39.623Z,69.74
2022-09-20T08:39:57.865Z,70.15
2022-09-20T08:45:00.712Z,68.73
2022-09-20T08:49:46.197Z,71.09
2022-09-20T08:54:40.163Z,69.74
2022-09-20T08:59:48.760Z,70.86
2022-09-20T09:19:25.284Z,69.57
2022-09-20T09:24:24.946Z,67.05
2022-09-20T09:29:24.767Z,64.42
2022-09-20T09:34:26.560Z,65.47
2022-09-20T09:57:01.071Z,67.76
2022-09-20T10:05:36.578Z,66.98
2022-09-20T10:10:36.083Z,66.30
2022-09-20T10:15:36.383Z,65.90
2022-09-20T10:20:36.040Z,64.67
2022-09-20T10:25:36.263Z,64.09
2022-09-20T10:30:36.206Z,61.77
2022-09-20T10:46:21.015Z,62.90
2022-09-20T10:50:57.442Z,62.98
2022-09-20T10:55:56.114Z,63.58
2022-09-20T11:00:56.034Z,59.45
2022-09-20T11:05:55.973Z,62.57
2022-09-20T11:10:56.180Z,62.88
2022-09-20T11:15:55.756Z,64.93
2022-09-20T11:20:55.993Z,65.40
2022-09-20T11:25:55.615Z,66.08
2022-09-20T11:30:55.608Z,58.17
2022-09-20T11:35:58.629Z,59.08
2022-09-20T11:40:55.498Z,61.23
2022-09-20T11:45:55.707Z,59.53
2022-09-20T11:50:55.362Z,59.18
2022-09-20T11:55:55.368Z,61.63
2022-09-20T12:00:55.133Z,62.27
2022-09-20T12:05:55.285Z,62.34
2022-09-20T12:10:55.358Z,62.60
2022-09-20T12:15:55.019Z,61.68
2022-09-20T12:20:54.904Z,58.76
2022-09-20T12:25:54.923Z,58.05
2022-09-20T12:30:54.749Z,54.10
2022-09-20T12:35:57.884Z,54.68
2022-09-20T12:43:29.498Z,74.27
2022-09-20T12:48:29.233Z,84.31
2022-09-20T12:53:29.350Z,87.35
2022-09-20T12:58:29.325Z,86.83
2022-09-20T13:03:29.349Z,86.98
2022-09-20T13:08:28.941Z,87.90
2022-09-20T13:13:29.367Z,87.14
2022-09-20T13:18:28.831Z,85.13
2022-09-20T13:23:28.813Z,84.80
2022-09-20T13:28:28.714Z,84.21
2022-09-20T13:33:31.748Z,81.33
2022-09-20T13:38:28.684Z,83.60
2022-09-20T13:43:28.505Z,82.40
2022-09-20T13:48:28.466Z,81.82
2022-09-20T13:53:40.953Z,81.78
2022-09-20T13:58:29.375Z,80.16
2022-09-20T14:03:28.290Z,80.19
2022-09-20T14:08:28.265Z,75.15
2022-09-20T14:13:28.118Z,77.57
2022-09-20T14:18:28.086Z,73.96
2022-09-20T14:23:28.066Z,72.14
2022-09-20T14:28:35.862Z,72.11
2022-09-20T14:33:38.631Z,69.82
2022-09-20T14:38:35.240Z,71.64
2022-09-20T14:43:27.896Z,71.57
